Albany, Wisconsin
Current Conditions -  °F | °C
As of 10:15 AM on Sunday 25 Jan 2015 (Local Time) from KEFT Reporting Station
Light Snow Light Snow  
Wind Chill: 13°   Ceiling: 1000
Heat Index: 27°   Visibility: 10mi
Dew Point: 25°   Wind: 18mph
Humidity: 93%   Direction: 30°NNE
Pressure: 29.83"   Gusts: 24mph
Location:  42.71°N, 89.44°W
Report Text: KEFT 251615Z AUTO 03016G21KT 10SM -SN OVC010 M03/M04 A2983 RMK AO2
Loading
Personal Weather Stations






























Interactive Weather Map New forecast layout! Learn more

10-Day Weather Forecast

Advertisements
Track Severe Weather on mobile